sensor_id;sensor_type;location;lat;lon;timestamp;P1;durP1;ratioP1;P2;durP2;ratioP2
79702;SDS011;69172;52.352;5.006;2023-05-07T00:01:50;42.50;;;27.30;;
79702;SDS011;69172;52.352;5.006;2023-05-07T00:04:16;42.67;;;28.02;;
79702;SDS011;69172;52.352;5.006;2023-05-07T00:06:42;44.33;;;28.90;;
79702;SDS011;69172;52.352;5.006;2023-05-07T00:09:07;48.35;;;31.15;;
79702;SDS011;69172;52.352;5.006;2023-05-07T00:11:33;52.67;;;31.40;;
79702;SDS011;69172;52.352;5.006;2023-05-07T00:13:58;50.42;;;30.10;;
79702;SDS011;69172;52.352;5.006;2023-05-07T00:16:24;42.58;;;27.30;;
79702;SDS011;69172;52.352;5.006;2023-05-07T00:18:50;46.97;;;28.98;;
79702;SDS011;69172;52.352;5.006;2023-05-07T00:21:15;44.28;;;28.02;;
79702;SDS011;69172;52.352;5.006;2023-05-07T00:23:41;44.35;;;28.40;;
79702;SDS011;69172;52.352;5.006;2023-05-07T00:26:06;45.97;;;28.70;;
79702;SDS011;69172;52.352;5.006;2023-05-07T00:28:33;53.13;;;30.70;;
79702;SDS011;69172;52.352;5.006;2023-05-07T00:30:58;48.50;;;28.15;;
79702;SDS011;69172;52.352;5.006;2023-05-07T00:33:24;46.95;;;28.95;;
79702;SDS011;69172;52.352;5.006;2023-05-07T00:35:51;46.00;;;28.52;;
79702;SDS011;69172;52.352;5.006;2023-05-07T00:38:17;53.75;;;29.35;;
79702;SDS011;69172;52.352;5.006;2023-05-07T00:40:42;51.55;;;29.88;;
79702;SDS011;69172;52.352;5.006;2023-05-07T00:43:07;52.47;;;30.23;;
79702;SDS011;69172;52.352;5.006;2023-05-07T00:45:33;49.50;;;28.52;;
79702;SDS011;69172;52.352;5.006;2023-05-07T00:48:00;45.33;;;29.15;;
79702;SDS011;69172;52.352;5.006;2023-05-07T00:50:26;48.72;;;30.35;;
79702;SDS011;69172;52.352;5.006;2023-05-07T00:52:53;48.58;;;29.10;;
79702;SDS011;69172;52.352;5.006;2023-05-07T00:55:21;50.45;;;29.88;;
79702;SDS011;69172;52.352;5.006;2023-05-07T00:57:48;49.35;;;29.52;;
79702;SDS011;69172;52.352;5.006;2023-05-07T01:00:14;49.50;;;28.58;;
79702;SDS011;69172;52.352;5.006;2023-05-07T01:02:40;47.22;;;28.83;;
79702;SDS011;69172;52.352;5.006;2023-05-07T01:05:06;47.80;;;29.83;;
79702;SDS011;69172;52.352;5.006;2023-05-07T01:07:34;44.10;;;25.77;;
79702;SDS011;69172;52.352;5.006;2023-05-07T01:10:00;42.72;;;27.90;;
79702;SDS011;69172;52.352;5.006;2023-05-07T01:12:28;44.83;;;26.92;;
79702;SDS011;69172;52.352;5.006;2023-05-07T01:14:54;42.72;;;27.00;;
79702;SDS011;69172;52.352;5.006;2023-05-07T01:17:21;49.95;;;28.77;;
79702;SDS011;69172;52.352;5.006;2023-05-07T01:19:46;42.38;;;27.05;;
79702;SDS011;69172;52.352;5.006;2023-05-07T01:22:13;40.50;;;25.63;;
79702;SDS011;69172;52.352;5.006;2023-05-07T01:24:41;36.63;;;25.13;;
79702;SDS011;69172;52.352;5.006;2023-05-07T01:27:06;36.42;;;23.85;;
79702;SDS011;69172;52.352;5.006;2023-05-07T01:29:32;37.13;;;24.13;;
79702;SDS011;69172;52.352;5.006;2023-05-07T01:31:58;32.92;;;23.42;;
79702;SDS011;69172;52.352;5.006;2023-05-07T01:34:25;35.63;;;23.23;;
79702;SDS011;69172;52.352;5.006;2023-05-07T01:36:54;34.15;;;23.13;;
79702;SDS011;69172;52.352;5.006;2023-05-07T01:39:22;34.38;;;22.83;;
79702;SDS011;69172;52.352;5.006;2023-05-07T01:41:53;33.17;;;21.60;;
79702;SDS011;69172;52.352;5.006;2023-05-07T01:44:22;28.95;;;20.23;;
79702;SDS011;69172;52.352;5.006;2023-05-07T01:46:48;28.25;;;20.80;;
79702;SDS011;69172;52.352;5.006;2023-05-07T01:49:14;27.98;;;19.55;;
79702;SDS011;69172;52.352;5.006;2023-05-07T01:51:41;29.45;;;20.88;;
79702;SDS011;69172;52.352;5.006;2023-05-07T01:54:07;30.20;;;20.48;;
79702;SDS011;69172;52.352;5.006;2023-05-07T01:56:39;27.25;;;19.15;;
79702;SDS011;69172;52.352;5.006;2023-05-07T01:59:07;29.20;;;20.08;;
79702;SDS011;69172;52.352;5.006;2023-05-07T02:01:32;27.85;;;18.98;;
79702;SDS011;69172;52.352;5.006;2023-05-07T02:03:57;30.20;;;19.70;;
79702;SDS011;69172;52.352;5.006;2023-05-07T02:06:23;28.52;;;18.45;;
79702;SDS011;69172;52.352;5.006;2023-05-07T02:08:49;31.05;;;19.95;;
79702;SDS011;69172;52.352;5.006;2023-05-07T02:11:15;26.08;;;18.85;;
79702;SDS011;69172;52.352;5.006;2023-05-07T02:13:40;24.83;;;17.17;;
79702;SDS011;69172;52.352;5.006;2023-05-07T02:16:06;24.38;;;16.77;;
79702;SDS011;69172;52.352;5.006;2023-05-07T02:21:17;25.98;;;16.90;;
79702;SDS011;69172;52.352;5.006;2023-05-07T02:23:42;20.10;;;15.10;;
79702;SDS011;69172;52.352;5.006;2023-05-07T02:26:07;20.58;;;14.27;;
79702;SDS011;69172;52.352;5.006;2023-05-07T02:28:33;22.98;;;14.80;;
79702;SDS011;69172;52.352;5.006;2023-05-07T02:31:02;20.67;;;14.68;;
79702;SDS011;69172;52.352;5.006;2023-05-07T02:33:29;18.65;;;13.68;;
79702;SDS011;69172;52.352;5.006;2023-05-07T02:35:55;22.75;;;15.48;;
79702;SDS011;69172;52.352;5.006;2023-05-07T02:38:21;20.08;;;12.70;;
79702;SDS011;69172;52.352;5.006;2023-05-07T02:40:47;19.45;;;13.80;;
79702;SDS011;69172;52.352;5.006;2023-05-07T02:43:12;21.05;;;13.50;;
79702;SDS011;69172;52.352;5.006;2023-05-07T02:45:37;21.13;;;13.63;;
79702;SDS011;69172;52.352;5.006;2023-05-07T02:48:03;17.85;;;12.88;;
79702;SDS011;69172;52.352;5.006;2023-05-07T02:50:30;17.73;;;12.10;;
79702;SDS011;69172;52.352;5.006;2023-05-07T02:52:57;16.20;;;11.90;;
79702;SDS011;69172;52.352;5.006;2023-05-07T02:55:22;18.50;;;12.25;;
79702;SDS011;69172;52.352;5.006;2023-05-07T02:57:48;17.73;;;11.40;;
79702;SDS011;69172;52.352;5.006;2023-05-07T03:00:14;16.67;;;11.52;;
79702;SDS011;69172;52.352;5.006;2023-05-07T03:02:41;18.50;;;11.15;;
79702;SDS011;69172;52.352;5.006;2023-05-07T03:05:07;15.98;;;11.05;;
79702;SDS011;69172;52.352;5.006;2023-05-07T03:07:33;19.42;;;11.73;;
79702;SDS011;69172;52.352;5.006;2023-05-07T03:09:58;16.50;;;11.35;;
79702;SDS011;69172;52.352;5.006;2023-05-07T03:12:24;17.02;;;10.88;;
79702;SDS011;69172;52.352;5.006;2023-05-07T03:14:49;18.13;;;10.98;;
79702;SDS011;69172;52.352;5.006;2023-05-07T03:17:15;17.65;;;11.80;;
79702;SDS011;69172;52.352;5.006;2023-05-07T03:19:41;16.38;;;10.48;;
79702;SDS011;69172;52.352;5.006;2023-05-07T03:22:07;15.05;;;10.57;;
79702;SDS011;69172;52.352;5.006;2023-05-07T03:24:32;16.33;;;10.55;;
79702;SDS011;69172;52.352;5.006;2023-05-07T03:26:58;13.40;;;9.55;;
79702;SDS011;69172;52.352;5.006;2023-05-07T03:29:23;13.90;;;9.57;;
79702;SDS011;69172;52.352;5.006;2023-05-07T03:31:49;15.45;;;9.05;;
79702;SDS011;69172;52.352;5.006;2023-05-07T03:34:14;15.32;;;9.80;;
79702;SDS011;69172;52.352;5.006;2023-05-07T03:36:42;14.80;;;10.45;;
79702;SDS011;69172;52.352;5.006;2023-05-07T03:39:07;17.23;;;10.50;;
79702;SDS011;69172;52.352;5.006;2023-05-07T03:41:33;15.98;;;10.77;;
79702;SDS011;69172;52.352;5.006;2023-05-07T03:43:58;18.65;;;11.48;;
79702;SDS011;69172;52.352;5.006;2023-05-07T03:46:23;18.65;;;11.15;;
79702;SDS011;69172;52.352;5.006;2023-05-07T03:48:51;15.32;;;11.27;;
79702;SDS011;69172;52.352;5.006;2023-05-07T03:51:16;18.48;;;11.88;;
79702;SDS011;69172;52.352;5.006;2023-05-07T03:53:42;17.42;;;11.43;;
79702;SDS011;69172;52.352;5.006;2023-05-07T03:56:07;17.70;;;11.82;;
79702;SDS011;69172;52.352;5.006;2023-05-07T03:58:32;17.88;;;11.70;;
79702;SDS011;69172;52.352;5.006;2023-05-07T04:00:58;18.13;;;11.68;;
79702;SDS011;69172;52.352;5.006;2023-05-07T04:03:23;17.42;;;11.63;;
79702;SDS011;69172;52.352;5.006;2023-05-07T04:05:49;17.00;;;11.27;;
79702;SDS011;69172;52.352;5.006;2023-05-07T04:08:14;18.08;;;12.15;;
79702;SDS011;69172;52.352;5.006;2023-05-07T04:10:39;16.70;;;11.68;;
79702;SDS011;69172;52.352;5.006;2023-05-07T04:13:05;16.25;;;11.65;;
79702;SDS011;69172;52.352;5.006;2023-05-07T04:15:30;17.58;;;12.05;;
79702;SDS011;69172;52.352;5.006;2023-05-07T04:17:55;18.20;;;12.75;;
79702;SDS011;69172;52.352;5.006;2023-05-07T04:20:21;18.70;;;12.73;;
79702;SDS011;69172;52.352;5.006;2023-05-07T04:22:46;19.00;;;12.88;;
79702;SDS011;69172;52.352;5.006;2023-05-07T04:25:11;18.65;;;13.43;;
79702;SDS011;69172;52.352;5.006;2023-05-07T04:30:05;18.15;;;13.30;;
79702;SDS011;69172;52.352;5.006;2023-05-07T04:32:31;17.95;;;13.75;;
79702;SDS011;69172;52.352;5.006;2023-05-07T04:34:57;21.13;;;14.00;;
79702;SDS011;69172;52.352;5.006;2023-05-07T04:37:22;20.52;;;14.23;;
79702;SDS011;69172;52.352;5.006;2023-05-07T04:39:47;22.17;;;13.98;;
79702;SDS011;69172;52.352;5.006;2023-05-07T04:42:16;22.70;;;14.68;;
79702;SDS011;69172;52.352;5.006;2023-05-07T04:44:43;20.95;;;15.40;;
79702;SDS011;69172;52.352;5.006;2023-05-07T04:47:09;21.50;;;14.23;;
79702;SDS011;69172;52.352;5.006;2023-05-07T04:49:34;20.27;;;14.48;;
79702;SDS011;69172;52.352;5.006;2023-05-07T04:52:00;21.02;;;14.75;;
79702;SDS011;69172;52.352;5.006;2023-05-07T04:54:26;22.83;;;14.20;;
79702;SDS011;69172;52.352;5.006;2023-05-07T04:56:51;20.42;;;14.52;;
79702;SDS011;69172;52.352;5.006;2023-05-07T04:59:17;24.73;;;15.52;;
79702;SDS011;69172;52.352;5.006;2023-05-07T05:01:42;20.70;;;13.90;;
79702;SDS011;69172;52.352;5.006;2023-05-07T05:04:08;23.40;;;15.50;;
79702;SDS011;69172;52.352;5.006;2023-05-07T05:06:33;20.83;;;15.10;;
79702;SDS011;69172;52.352;5.006;2023-05-07T05:09:05;22.83;;;15.90;;
79702;SDS011;69172;52.352;5.006;2023-05-07T05:11:31;22.17;;;14.85;;
79702;SDS011;69172;52.352;5.006;2023-05-07T05:13:56;21.52;;;14.25;;
79702;SDS011;69172;52.352;5.006;2023-05-07T05:16:22;21.02;;;15.10;;
79702;SDS011;69172;52.352;5.006;2023-05-07T05:18:47;17.63;;;12.80;;
79702;SDS011;69172;52.352;5.006;2023-05-07T05:21:13;19.02;;;14.02;;
79702;SDS011;69172;52.352;5.006;2023-05-07T05:23:38;18.65;;;13.32;;
79702;SDS011;69172;52.352;5.006;2023-05-07T05:26:04;20.65;;;14.07;;
79702;SDS011;69172;52.352;5.006;2023-05-07T05:28:29;20.42;;;13.23;;
79702;SDS011;69172;52.352;5.006;2023-05-07T05:30:55;19.70;;;12.63;;
79702;SDS011;69172;52.352;5.006;2023-05-07T05:33:21;19.77;;;13.13;;
79702;SDS011;69172;52.352;5.006;2023-05-07T05:35:49;18.05;;;12.40;;
79702;SDS011;69172;52.352;5.006;2023-05-07T05:38:14;18.33;;;12.68;;
79702;SDS011;69172;52.352;5.006;2023-05-07T05:40:40;19.25;;;13.00;;
79702;SDS011;69172;52.352;5.006;2023-05-07T05:43:06;21.00;;;13.38;;
79702;SDS011;69172;52.352;5.006;2023-05-07T05:45:32;17.92;;;12.82;;
79702;SDS011;69172;52.352;5.006;2023-05-07T05:47:58;21.15;;;12.32;;
79702;SDS011;69172;52.352;5.006;2023-05-07T05:50:24;18.40;;;12.55;;
79702;SDS011;69172;52.352;5.006;2023-05-07T05:52:49;18.02;;;11.57;;
79702;SDS011;69172;52.352;5.006;2023-05-07T05:55:15;16.02;;;11.85;;
79702;SDS011;69172;52.352;5.006;2023-05-07T05:57:40;18.45;;;12.45;;
79702;SDS011;69172;52.352;5.006;2023-05-07T06:00:06;17.30;;;11.90;;
79702;SDS011;69172;52.352;5.006;2023-05-07T06:02:34;15.93;;;11.45;;
79702;SDS011;69172;52.352;5.006;2023-05-07T06:05:01;16.83;;;10.95;;
79702;SDS011;69172;52.352;5.006;2023-05-07T06:07:28;17.80;;;12.23;;
79702;SDS011;69172;52.352;5.006;2023-05-07T06:09:53;16.90;;;12.20;;
79702;SDS011;69172;52.352;5.006;2023-05-07T06:12:20;15.90;;;12.30;;
79702;SDS011;69172;52.352;5.006;2023-05-07T06:14:45;14.98;;;11.68;;
79702;SDS011;69172;52.352;5.006;2023-05-07T06:17:11;15.70;;;10.48;;
79702;SDS011;69172;52.352;5.006;2023-05-07T06:19:36;18.55;;;11.93;;
79702;SDS011;69172;52.352;5.006;2023-05-07T06:22:02;17.17;;;11.00;;
79702;SDS011;69172;52.352;5.006;2023-05-07T06:24:28;16.88;;;10.13;;
79702;SDS011;69172;52.352;5.006;2023-05-07T06:26:54;16.27;;;11.38;;
79702;SDS011;69172;52.352;5.006;2023-05-07T06:29:20;17.25;;;11.55;;
79702;SDS011;69172;52.352;5.006;2023-05-07T06:31:45;16.70;;;10.25;;
79702;SDS011;69172;52.352;5.006;2023-05-07T06:34:11;14.52;;;10.35;;
79702;SDS011;69172;52.352;5.006;2023-05-07T06:36:39;15.82;;;11.77;;
79702;SDS011;69172;52.352;5.006;2023-05-07T06:39:05;16.95;;;11.52;;
79702;SDS011;69172;52.352;5.006;2023-05-07T06:41:30;14.52;;;9.57;;
79702;SDS011;69172;52.352;5.006;2023-05-07T06:43:56;17.83;;;11.95;;
79702;SDS011;69172;52.352;5.006;2023-05-07T06:46:21;17.45;;;12.07;;
79702;SDS011;69172;52.352;5.006;2023-05-07T06:48:47;18.58;;;12.80;;
79702;SDS011;69172;52.352;5.006;2023-05-07T06:51:12;16.17;;;12.60;;
79702;SDS011;69172;52.352;5.006;2023-05-07T06:53:38;18.55;;;12.82;;
79702;SDS011;69172;52.352;5.006;2023-05-07T06:56:03;17.88;;;12.68;;
79702;SDS011;69172;52.352;5.006;2023-05-07T06:58:29;16.83;;;12.27;;
79702;SDS011;69172;52.352;5.006;2023-05-07T07:00:55;20.10;;;11.80;;
79702;SDS011;69172;52.352;5.006;2023-05-07T07:03:20;17.85;;;11.98;;
79702;SDS011;69172;52.352;5.006;2023-05-07T07:05:45;20.45;;;13.30;;
79702;SDS011;69172;52.352;5.006;2023-05-07T07:08:11;17.58;;;11.68;;
79702;SDS011;69172;52.352;5.006;2023-05-07T07:10:36;18.90;;;12.90;;
79702;SDS011;69172;52.352;5.006;2023-05-07T07:13:02;16.90;;;11.88;;
79702;SDS011;69172;52.352;5.006;2023-05-07T07:15:27;20.48;;;13.32;;
79702;SDS011;69172;52.352;5.006;2023-05-07T07:17:53;18.85;;;13.13;;
79702;SDS011;69172;52.352;5.006;2023-05-07T07:20:18;20.00;;;12.15;;
79702;SDS011;69172;52.352;5.006;2023-05-07T07:22:44;18.10;;;13.48;;
79702;SDS011;69172;52.352;5.006;2023-05-07T07:25:09;18.25;;;13.07;;
79702;SDS011;69172;52.352;5.006;2023-05-07T07:27:37;20.30;;;13.85;;
79702;SDS011;69172;52.352;5.006;2023-05-07T07:30:03;18.38;;;13.43;;
79702;SDS011;69172;52.352;5.006;2023-05-07T07:32:28;17.10;;;12.80;;
79702;SDS011;69172;52.352;5.006;2023-05-07T07:34:54;19.13;;;14.05;;
79702;SDS011;69172;52.352;5.006;2023-05-07T07:37:19;18.42;;;12.70;;
79702;SDS011;69172;52.352;5.006;2023-05-07T07:39:45;19.33;;;13.63;;
79702;SDS011;69172;52.352;5.006;2023-05-07T07:42:16;19.08;;;14.25;;
79702;SDS011;69172;52.352;5.006;2023-05-07T07:44:42;18.48;;;14.40;;
79702;SDS011;69172;52.352;5.006;2023-05-07T07:47:07;19.52;;;14.73;;
79702;SDS011;69172;52.352;5.006;2023-05-07T07:49:32;26.73;;;15.63;;
79702;SDS011;69172;52.352;5.006;2023-05-07T07:51:58;18.77;;;14.40;;
79702;SDS011;69172;52.352;5.006;2023-05-07T07:54:24;17.95;;;14.50;;
79702;SDS011;69172;52.352;5.006;2023-05-07T07:56:50;20.85;;;14.65;;
79702;SDS011;69172;52.352;5.006;2023-05-07T07:59:15;19.92;;;14.75;;
79702;SDS011;69172;52.352;5.006;2023-05-07T08:01:43;19.58;;;14.38;;
79702;SDS011;69172;52.352;5.006;2023-05-07T08:04:09;18.63;;;14.25;;
79702;SDS011;69172;52.352;5.006;2023-05-07T08:06:34;18.67;;;12.95;;
79702;SDS011;69172;52.352;5.006;2023-05-07T08:09:00;20.40;;;15.52;;
79702;SDS011;69172;52.352;5.006;2023-05-07T08:11:25;18.63;;;15.65;;
79702;SDS011;69172;52.352;5.006;2023-05-07T08:13:52;18.42;;;15.38;;
79702;SDS011;69172;52.352;5.006;2023-05-07T08:16:18;22.00;;;15.90;;
79702;SDS011;69172;52.352;5.006;2023-05-07T08:18:43;20.67;;;15.55;;
79702;SDS011;69172;52.352;5.006;2023-05-07T08:21:11;18.60;;;15.20;;
79702;SDS011;69172;52.352;5.006;2023-05-07T08:23:37;23.75;;;16.05;;
79702;SDS011;69172;52.352;5.006;2023-05-07T08:26:03;21.13;;;15.18;;
79702;SDS011;69172;52.352;5.006;2023-05-07T08:28:28;19.92;;;15.30;;
79702;SDS011;69172;52.352;5.006;2023-05-07T08:30:54;23.40;;;16.02;;
79702;SDS011;69172;52.352;5.006;2023-05-07T08:33:21;22.60;;;15.18;;
79702;SDS011;69172;52.352;5.006;2023-05-07T08:35:48;21.40;;;16.38;;
79702;SDS011;69172;52.352;5.006;2023-05-07T08:38:13;20.50;;;15.65;;
79702;SDS011;69172;52.352;5.006;2023-05-07T08:40:39;18.98;;;14.32;;
79702;SDS011;69172;52.352;5.006;2023-05-07T08:43:06;20.58;;;14.70;;
79702;SDS011;69172;52.352;5.006;2023-05-07T08:45:32;18.98;;;13.73;;
79702;SDS011;69172;52.352;5.006;2023-05-07T08:47:59;18.02;;;13.65;;
79702;SDS011;69172;52.352;5.006;2023-05-07T08:50:27;17.27;;;13.20;;
79702;SDS011;69172;52.352;5.006;2023-05-07T08:52:52;18.98;;;13.63;;
79702;SDS011;69172;52.352;5.006;2023-05-07T08:55:18;19.48;;;14.05;;
79702;SDS011;69172;52.352;5.006;2023-05-07T08:57:44;25.02;;;17.33;;
79702;SDS011;69172;52.352;5.006;2023-05-07T09:00:10;17.10;;;12.93;;
79702;SDS011;69172;52.352;5.006;2023-05-07T09:02:36;17.23;;;11.52;;
79702;SDS011;69172;52.352;5.006;2023-05-07T09:05:02;22.70;;;15.45;;
79702;SDS011;69172;52.352;5.006;2023-05-07T09:07:28;17.77;;;13.88;;
79702;SDS011;69172;52.352;5.006;2023-05-07T09:09:56;20.10;;;14.07;;
79702;SDS011;69172;52.352;5.006;2023-05-07T09:15:17;18.05;;;13.38;;
79702;SDS011;69172;52.352;5.006;2023-05-07T09:17:43;15.02;;;11.60;;
79702;SDS011;69172;52.352;5.006;2023-05-07T09:20:08;17.98;;;13.07;;
79702;SDS011;69172;52.352;5.006;2023-05-07T09:22:37;16.08;;;11.35;;
79702;SDS011;69172;52.352;5.006;2023-05-07T09:25:06;15.65;;;11.32;;
79702;SDS011;69172;52.352;5.006;2023-05-07T09:27:32;15.25;;;11.85;;
79702;SDS011;69172;52.352;5.006;2023-05-07T09:29:57;15.55;;;10.88;;
79702;SDS011;69172;52.352;5.006;2023-05-07T09:32:22;17.63;;;12.73;;
79702;SDS011;69172;52.352;5.006;2023-05-07T09:34:49;16.20;;;11.63;;
79702;SDS011;69172;52.352;5.006;2023-05-07T09:37:16;16.92;;;12.18;;
79702;SDS011;69172;52.352;5.006;2023-05-07T09:39:50;16.23;;;11.52;;
79702;SDS011;69172;52.352;5.006;2023-05-07T09:42:23;17.17;;;12.60;;
79702;SDS011;69172;52.352;5.006;2023-05-07T09:44:56;15.45;;;11.50;;
79702;SDS011;69172;52.352;5.006;2023-05-07T09:47:23;15.75;;;11.80;;
79702;SDS011;69172;52.352;5.006;2023-05-07T09:49:50;15.60;;;11.35;;
79702;SDS011;69172;52.352;5.006;2023-05-07T09:52:22;17.00;;;12.20;;
79702;SDS011;69172;52.352;5.006;2023-05-07T09:54:48;18.58;;;13.43;;
79702;SDS011;69172;52.352;5.006;2023-05-07T09:57:16;19.85;;;15.25;;
79702;SDS011;69172;52.352;5.006;2023-05-07T09:59:43;17.65;;;14.88;;
79702;SDS011;69172;52.352;5.006;2023-05-07T10:02:10;18.40;;;14.70;;
79702;SDS011;69172;52.352;5.006;2023-05-07T10:04:38;19.05;;;14.75;;
79702;SDS011;69172;52.352;5.006;2023-05-07T10:07:05;20.65;;;15.90;;
79702;SDS011;69172;52.352;5.006;2023-05-07T10:09:33;19.63;;;17.20;;
79702;SDS011;69172;52.352;5.006;2023-05-07T10:12:03;18.35;;;15.80;;
79702;SDS011;69172;52.352;5.006;2023-05-07T10:14:30;20.92;;;16.92;;
79702;SDS011;69172;52.352;5.006;2023-05-07T10:16:55;22.20;;;17.83;;
79702;SDS011;69172;52.352;5.006;2023-05-07T10:19:21;19.45;;;16.20;;
79702;SDS011;69172;52.352;5.006;2023-05-07T10:22:01;22.30;;;17.30;;
79702;SDS011;69172;52.352;5.006;2023-05-07T10:24:32;20.33;;;17.00;;
79702;SDS011;69172;52.352;5.006;2023-05-07T10:27:02;21.23;;;17.23;;
79702;SDS011;69172;52.352;5.006;2023-05-07T10:29:33;19.55;;;16.30;;
79702;SDS011;69172;52.352;5.006;2023-05-07T10:35:16;18.33;;;15.90;;
79702;SDS011;69172;52.352;5.006;2023-05-07T10:37:45;20.63;;;15.85;;
79702;SDS011;69172;52.352;5.006;2023-05-07T10:40:12;19.02;;;15.30;;
79702;SDS011;69172;52.352;5.006;2023-05-07T10:42:38;20.13;;;16.38;;
79702;SDS011;69172;52.352;5.006;2023-05-07T10:45:13;20.15;;;16.10;;
79702;SDS011;69172;52.352;5.006;2023-05-07T10:50:30;17.52;;;13.40;;
79702;SDS011;69172;52.352;5.006;2023-05-07T10:56:23;16.75;;;13.82;;
79702;SDS011;69172;52.352;5.006;2023-05-07T11:01:50;16.00;;;13.32;;
79702;SDS011;69172;52.352;5.006;2023-05-07T11:04:18;17.67;;;13.57;;
79702;SDS011;69172;52.352;5.006;2023-05-07T11:07:31;17.40;;;12.23;;
79702;SDS011;69172;52.352;5.006;2023-05-07T11:15:10;17.60;;;13.27;;
79702;SDS011;69172;52.352;5.006;2023-05-07T11:17:53;18.77;;;14.68;;
79702;SDS011;69172;52.352;5.006;2023-05-07T11:25:59;16.00;;;11.95;;
79702;SDS011;69172;52.352;5.006;2023-05-07T11:28:28;16.48;;;12.02;;
79702;SDS011;69172;52.352;5.006;2023-05-07T11:30:56;16.95;;;12.43;;
79702;SDS011;69172;52.352;5.006;2023-05-07T11:33:22;14.63;;;11.20;;
79702;SDS011;69172;52.352;5.006;2023-05-07T11:35:56;17.40;;;12.52;;
79702;SDS011;69172;52.352;5.006;2023-05-07T11:38:24;17.25;;;12.30;;
79702;SDS011;69172;52.352;5.006;2023-05-07T11:40:53;15.88;;;12.45;;
79702;SDS011;69172;52.352;5.006;2023-05-07T11:43:21;16.63;;;11.32;;
79702;SDS011;69172;52.352;5.006;2023-05-07T11:45:47;15.73;;;10.63;;
79702;SDS011;69172;52.352;5.006;2023-05-07T11:48:14;16.45;;;11.25;;
79702;SDS011;69172;52.352;5.006;2023-05-07T11:50:53;15.82;;;11.55;;
79702;SDS011;69172;52.352;5.006;2023-05-07T11:53:35;15.10;;;11.30;;
79702;SDS011;69172;52.352;5.006;2023-05-07T11:56:07;15.15;;;10.45;;
79702;SDS011;69172;52.352;5.006;2023-05-07T11:58:37;16.77;;;10.63;;
79702;SDS011;69172;52.352;5.006;2023-05-07T12:01:07;12.70;;;9.45;;
79702;SDS011;69172;52.352;5.006;2023-05-07T12:03:34;13.63;;;8.90;;
79702;SDS011;69172;52.352;5.006;2023-05-07T12:05:59;15.60;;;8.77;;
79702;SDS011;69172;52.352;5.006;2023-05-07T12:08:25;15.55;;;10.35;;
79702;SDS011;69172;52.352;5.006;2023-05-07T12:10:50;13.90;;;8.75;;
79702;SDS011;69172;52.352;5.006;2023-05-07T12:15:50;12.80;;;7.43;;
79702;SDS011;69172;52.352;5.006;2023-05-07T12:18:16;10.65;;;6.60;;
79702;SDS011;69172;52.352;5.006;2023-05-07T12:20:41;10.88;;;6.47;;
79702;SDS011;69172;52.352;5.006;2023-05-07T12:23:07;11.02;;;6.35;;
79702;SDS011;69172;52.352;5.006;2023-05-07T12:25:40;11.30;;;6.45;;
79702;SDS011;69172;52.352;5.006;2023-05-07T12:28:13;12.68;;;7.15;;
79702;SDS011;69172;52.352;5.006;2023-05-07T12:30:44;10.85;;;6.07;;
79702;SDS011;69172;52.352;5.006;2023-05-07T12:33:11;14.50;;;9.52;;
79702;SDS011;69172;52.352;5.006;2023-05-07T12:35:42;11.05;;;6.93;;
79702;SDS011;69172;52.352;5.006;2023-05-07T12:38:08;12.73;;;9.40;;
79702;SDS011;69172;52.352;5.006;2023-05-07T12:43:21;17.55;;;12.60;;
79702;SDS011;69172;52.352;5.006;2023-05-07T12:45:53;17.85;;;12.65;;
79702;SDS011;69172;52.352;5.006;2023-05-07T12:48:21;17.23;;;13.05;;
79702;SDS011;69172;52.352;5.006;2023-05-07T12:50:52;19.88;;;15.13;;
79702;SDS011;69172;52.352;5.006;2023-05-07T12:53:20;18.83;;;13.93;;
79702;SDS011;69172;52.352;5.006;2023-05-07T12:55:48;17.02;;;13.05;;
79702;SDS011;69172;52.352;5.006;2023-05-07T12:58:18;20.13;;;14.00;;
79702;SDS011;69172;52.352;5.006;2023-05-07T13:00:51;17.02;;;12.35;;
79702;SDS011;69172;52.352;5.006;2023-05-07T13:03:20;16.75;;;11.25;;
79702;SDS011;69172;52.352;5.006;2023-05-07T13:05:50;16.42;;;11.77;;
79702;SDS011;69172;52.352;5.006;2023-05-07T13:08:26;17.50;;;12.70;;
79702;SDS011;69172;52.352;5.006;2023-05-07T13:13:18;20.95;;;14.88;;
79702;SDS011;69172;52.352;5.006;2023-05-07T13:15:45;24.92;;;16.02;;
79702;SDS011;69172;52.352;5.006;2023-05-07T13:18:14;22.23;;;16.90;;
79702;SDS011;69172;52.352;5.006;2023-05-07T13:20:44;21.38;;;15.57;;
79702;SDS011;69172;52.352;5.006;2023-05-07T13:23:18;20.73;;;15.85;;
79702;SDS011;69172;52.352;5.006;2023-05-07T13:25:45;20.52;;;15.80;;
79702;SDS011;69172;52.352;5.006;2023-05-07T13:28:10;23.55;;;16.38;;
79702;SDS011;69172;52.352;5.006;2023-05-07T13:30:49;21.02;;;15.90;;
79702;SDS011;69172;52.352;5.006;2023-05-07T13:33:18;27.05;;;18.05;;
79702;SDS011;69172;52.352;5.006;2023-05-07T13:35:45;23.63;;;17.75;;
79702;SDS011;69172;52.352;5.006;2023-05-07T13:38:10;23.83;;;17.27;;
79702;SDS011;69172;52.352;5.006;2023-05-07T13:40:37;30.85;;;21.77;;
79702;SDS011;69172;52.352;5.006;2023-05-07T13:43:02;26.10;;;19.65;;
79702;SDS011;69172;52.352;5.006;2023-05-07T13:45:28;24.70;;;17.25;;
79702;SDS011;69172;52.352;5.006;2023-05-07T13:47:57;24.52;;;17.17;;
79702;SDS011;69172;52.352;5.006;2023-05-07T13:50:24;25.55;;;16.83;;
79702;SDS011;69172;52.352;5.006;2023-05-07T13:52:51;23.35;;;16.65;;
79702;SDS011;69172;52.352;5.006;2023-05-07T13:55:17;22.23;;;15.75;;
79702;SDS011;69172;52.352;5.006;2023-05-07T13:57:44;22.70;;;14.95;;
79702;SDS011;69172;52.352;5.006;2023-05-07T14:00:10;23.85;;;14.98;;
79702;SDS011;69172;52.352;5.006;2023-05-07T14:02:36;25.38;;;17.13;;
79702;SDS011;69172;52.352;5.006;2023-05-07T14:05:01;23.63;;;16.50;;
79702;SDS011;69172;52.352;5.006;2023-05-07T14:07:27;24.63;;;16.10;;
79702;SDS011;69172;52.352;5.006;2023-05-07T14:09:53;26.20;;;16.42;;
79702;SDS011;69172;52.352;5.006;2023-05-07T14:12:19;26.55;;;16.85;;
79702;SDS011;69172;52.352;5.006;2023-05-07T14:14:44;28.98;;;19.40;;
79702;SDS011;69172;52.352;5.006;2023-05-07T14:17:10;26.83;;;17.05;;
79702;SDS011;69172;52.352;5.006;2023-05-07T14:19:36;25.13;;;17.27;;
79702;SDS011;69172;52.352;5.006;2023-05-07T14:22:02;25.58;;;15.80;;
79702;SDS011;69172;52.352;5.006;2023-05-07T14:24:28;13.52;;;8.07;;
79702;SDS011;69172;52.352;5.006;2023-05-07T14:26:54;10.70;;;5.78;;
79702;SDS011;69172;52.352;5.006;2023-05-07T14:29:19;12.90;;;5.30;;
79702;SDS011;69172;52.352;5.006;2023-05-07T14:31:59;14.57;;;8.27;;
79702;SDS011;69172;52.352;5.006;2023-05-07T14:34:26;12.38;;;5.72;;
79702;SDS011;69172;52.352;5.006;2023-05-07T14:36:51;5.72;;;2.53;;
79702;SDS011;69172;52.352;5.006;2023-05-07T14:39:17;8.00;;;2.80;;
79702;SDS011;69172;52.352;5.006;2023-05-07T14:41:42;5.97;;;2.63;;
79702;SDS011;69172;52.352;5.006;2023-05-07T14:44:07;7.63;;;2.08;;
79702;SDS011;69172;52.352;5.006;2023-05-07T14:46:37;6.82;;;1.92;;
79702;SDS011;69172;52.352;5.006;2023-05-07T14:49:03;6.78;;;2.15;;
79702;SDS011;69172;52.352;5.006;2023-05-07T14:51:29;9.45;;;3.05;;
79702;SDS011;69172;52.352;5.006;2023-05-07T14:53:55;7.82;;;3.05;;
79702;SDS011;69172;52.352;5.006;2023-05-07T14:56:21;9.65;;;2.85;;
79702;SDS011;69172;52.352;5.006;2023-05-07T14:58:47;9.05;;;3.17;;
79702;SDS011;69172;52.352;5.006;2023-05-07T15:01:13;11.82;;;4.22;;